createdAt,value
2019-01-24T00:00:34.062Z,5.30
2019-01-24T00:03:02.533Z,5.30
2019-01-24T00:05:30.881Z,5.30
2019-01-24T00:07:59.333Z,5.20
2019-01-24T00:10:27.840Z,5.20
2019-01-24T00:12:57.409Z,5.20
2019-01-24T00:15:26.020Z,5.20
2019-01-24T00:17:54.454Z,5.20
2019-01-24T00:20:22.854Z,5.20
2019-01-24T00:22:51.446Z,5.20
2019-01-24T00:25:20.045Z,5.10
2019-01-24T00:27:48.511Z,5.10
2019-01-24T00:30:17.077Z,5.10
2019-01-24T00:32:46.469Z,5.10
2019-01-24T00:35:15.072Z,5.10
2019-01-24T00:37:43.808Z,5.00
2019-01-24T00:40:14.785Z,5.00
2019-01-24T00:42:43.725Z,5.00
2019-01-24T00:45:13.265Z,5.00
2019-01-24T00:47:41.590Z,5.00
2019-01-24T00:50:10.581Z,5.00
2019-01-24T00:52:38.901Z,5.00
2019-01-24T00:55:10.009Z,5.00
2019-01-24T00:57:38.409Z,5.00
2019-01-24T01:00:10.870Z,5.00
2019-01-24T01:02:39.349Z,5.00
2019-01-24T01:05:08.562Z,5.10
2019-01-24T01:07:37.094Z,5.10
2019-01-24T01:10:06.361Z,5.10
2019-01-24T01:12:34.927Z,5.20
2019-01-24T01:15:05.565Z,5.20
2019-01-24T01:17:33.976Z,5.20
2019-01-24T01:20:03.264Z,5.20
2019-01-24T01:22:31.683Z,5.20
2019-01-24T01:25:00.208Z,5.10
2019-01-24T01:27:28.565Z,5.10
2019-01-24T01:29:56.989Z,5.10
2019-01-24T01:32:25.394Z,5.10
2019-01-24T01:34:53.969Z,5.10
2019-01-24T01:37:22.496Z,5.10
2019-01-24T01:39:51.000Z,5.10
2019-01-24T01:42:19.376Z,5.10
2019-01-24T01:44:48.000Z,5.10
2019-01-24T01:47:16.379Z,5.20
2019-01-24T01:49:44.872Z,5.20
2019-01-24T01:52:13.356Z,5.20
2019-01-24T01:54:41.839Z,5.20
2019-01-24T01:57:10.161Z,5.20
2019-01-24T01:59:38.625Z,5.20
2019-01-24T02:02:07.137Z,5.30
2019-01-24T02:04:35.715Z,5.30
2019-01-24T02:07:04.205Z,5.30
2019-01-24T02:09:32.638Z,5.30
2019-01-24T02:12:01.041Z,5.30
2019-01-24T02:14:29.405Z,5.30
2019-01-24T02:16:57.857Z,5.30
2019-01-24T02:19:26.295Z,5.30
2019-01-24T02:21:55.053Z,5.30
2019-01-24T02:24:23.602Z,5.40
2019-01-24T02:26:52.097Z,5.40
2019-01-24T02:29:20.409Z,5.50
2019-01-24T02:31:48.842Z,5.50
2019-01-24T02:34:17.250Z,5.50
2019-01-24T02:36:45.753Z,5.60
2019-01-24T02:39:14.379Z,5.60
2019-01-24T02:41:42.901Z,5.70
2019-01-24T02:44:11.586Z,5.70
2019-01-24T02:46:40.040Z,5.80
2019-01-24T02:49:08.372Z,5.80
2019-01-24T02:51:36.989Z,5.80
2019-01-24T02:54:05.521Z,5.90
2019-01-24T02:56:34.081Z,5.90
2019-01-24T02:59:02.642Z,5.90
2019-01-24T03:01:31.081Z,5.90
2019-01-24T03:03:59.585Z,6.00
2019-01-24T03:06:28.123Z,6.00
2019-01-24T03:08:56.490Z,6.10
2019-01-24T03:11:25.006Z,6.10
2019-01-24T03:13:53.341Z,6.10
2019-01-24T03:16:21.809Z,6.10
2019-01-24T03:18:50.113Z,6.10
2019-01-24T03:21:18.573Z,6.10
2019-01-24T03:23:48.093Z,6.10
2019-01-24T03:26:16.493Z,6.10
2019-01-24T03:28:44.893Z,6.10
2019-01-24T03:31:13.305Z,6.10
2019-01-24T03:33:41.700Z,6.10
2019-01-24T03:36:10.069Z,6.10
2019-01-24T03:38:38.446Z,6.10
2019-01-24T03:41:06.942Z,6.10
2019-01-24T03:43:36.737Z,6.10
2019-01-24T03:46:05.159Z,6.10
2019-01-24T03:48:33.541Z,6.00
2019-01-24T03:51:01.916Z,6.00
2019-01-24T03:53:30.410Z,6.00
2019-01-24T03:56:00.525Z,5.90
2019-01-24T03:58:29.067Z,5.90
2019-01-24T04:00:57.612Z,5.90
2019-01-24T04:03:25.990Z,5.90
2019-01-24T04:05:54.493Z,5.90
2019-01-24T04:08:22.965Z,5.90
2019-01-24T04:10:51.273Z,5.90
2019-01-24T04:13:19.645Z,5.90
2019-01-24T04:15:48.042Z,5.90
2019-01-24T04:18:16.532Z,5.90
2019-01-24T04:20:45.005Z,5.90
2019-01-24T04:23:13.420Z,6.00
2019-01-24T04:25:41.956Z,6.00
2019-01-24T04:28:10.333Z,6.10
2019-01-24T04:30:39.846Z,6.10
2019-01-24T04:33:08.172Z,6.20
2019-01-24T04:35:36.608Z,6.30
2019-01-24T04:38:05.136Z,6.30
2019-01-24T04:40:33.517Z,6.30
2019-01-24T04:43:01.960Z,6.40
2019-01-24T04:45:30.369Z,6.40
2019-01-24T04:47:58.850Z,6.50
2019-01-24T04:50:27.259Z,6.50
2019-01-24T04:52:55.663Z,6.50
2019-01-24T04:55:24.185Z,6.50
2019-01-24T04:57:52.563Z,6.60
2019-01-24T05:00:26.102Z,6.60
2019-01-24T05:02:54.509Z,6.60
2019-01-24T05:05:27.824Z,6.50
2019-01-24T05:07:53.642Z,6.50
2019-01-24T05:10:22.245Z,6.50
2019-01-24T05:12:50.569Z,6.40
2019-01-24T05:15:20.220Z,6.40
2019-01-24T05:17:49.618Z,6.40
2019-01-24T05:20:18.483Z,6.30
2019-01-24T05:22:47.065Z,6.30
2019-01-24T05:25:16.575Z,6.30
2019-01-24T05:27:45.255Z,6.30
2019-01-24T05:30:19.874Z,6.30
2019-01-24T05:32:48.481Z,6.30
2019-01-24T05:35:17.011Z,6.30
2019-01-24T05:37:46.011Z,6.30
2019-01-24T05:40:14.631Z,6.30
2019-01-24T05:42:43.123Z,6.30
2019-01-24T05:45:11.653Z,6.40
2019-01-24T05:47:40.181Z,6.40
2019-01-24T05:50:09.390Z,6.40
2019-01-24T05:52:38.271Z,6.50
2019-01-24T05:55:07.661Z,6.50
2019-01-24T05:57:36.024Z,6.50
2019-01-24T06:00:06.772Z,6.50
2019-01-24T06:02:36.003Z,6.50
2019-01-24T06:05:06.473Z,6.50
2019-01-24T06:07:35.106Z,6.50
2019-01-24T06:10:04.994Z,6.40
2019-01-24T06:12:33.569Z,6.40
2019-01-24T06:15:02.066Z,6.40
2019-01-24T06:17:30.509Z,6.30
2019-01-24T06:19:59.011Z,6.30
2019-01-24T06:22:27.331Z,6.30
2019-01-24T06:24:55.782Z,6.30
2019-01-24T06:27:24.309Z,6.30
2019-01-24T06:29:52.685Z,6.30
2019-01-24T06:32:21.092Z,6.30
2019-01-24T06:34:49.879Z,6.30
2019-01-24T06:37:18.217Z,6.30
2019-01-24T06:39:46.646Z,6.30
2019-01-24T06:42:15.161Z,6.30
2019-01-24T06:44:44.585Z,6.30
2019-01-24T06:47:13.002Z,6.30
2019-01-24T06:49:41.395Z,6.30
2019-01-24T06:52:09.769Z,6.30
2019-01-24T06:54:38.770Z,6.30
2019-01-24T06:57:07.109Z,6.30
2019-01-24T06:59:35.595Z,6.30
2019-01-24T07:02:04.060Z,6.30
2019-01-24T07:04:32.548Z,6.30
2019-01-24T07:07:01.037Z,6.30
2019-01-24T07:09:29.464Z,6.30
2019-01-24T07:11:57.881Z,6.30
2019-01-24T07:14:26.361Z,6.40
2019-01-24T07:16:54.941Z,6.40
2019-01-24T07:19:23.738Z,6.40
2019-01-24T07:21:52.065Z,6.40
2019-01-24T07:24:21.481Z,6.40
2019-01-24T07:26:49.965Z,6.40
2019-01-24T07:29:18.420Z,6.40
2019-01-24T07:31:46.861Z,6.40
2019-01-24T07:34:15.225Z,6.50
2019-01-24T07:36:43.737Z,6.50
2019-01-24T07:39:12.101Z,6.50
2019-01-24T07:41:40.591Z,6.50
2019-01-24T07:44:09.012Z,6.60
2019-01-24T07:46:37.449Z,6.60
2019-01-24T07:49:05.857Z,6.70
2019-01-24T07:51:34.424Z,6.70
2019-01-24T07:54:02.954Z,6.70
2019-01-24T07:56:31.797Z,6.80
2019-01-24T07:59:00.718Z,6.80
2019-01-24T08:01:31.101Z,6.90
2019-01-24T08:03:59.514Z,7.00
2019-01-24T08:06:28.233Z,7.00
2019-01-24T08:08:56.558Z,7.10
2019-01-24T08:11:25.060Z,7.20
2019-01-24T08:13:53.550Z,7.20
2019-01-24T08:16:22.235Z,7.30
2019-01-24T08:18:50.545Z,7.30
2019-01-24T08:21:20.209Z,7.40
2019-01-24T08:23:48.590Z,7.40
2019-01-24T08:26:17.205Z,7.40
2019-01-24T08:28:45.715Z,7.40
2019-01-24T08:31:14.281Z,7.50
2019-01-24T08:33:42.810Z,7.50
2019-01-24T08:36:15.527Z,7.50
2019-01-24T08:38:41.468Z,7.60
2019-01-24T08:41:09.873Z,7.70
2019-01-24T08:43:38.340Z,7.80
2019-01-24T08:46:06.745Z,7.80
2019-01-24T08:48:36.425Z,7.90
2019-01-24T08:51:04.905Z,8.00
2019-01-24T08:53:33.476Z,8.10
2019-01-24T08:56:02.123Z,8.20
2019-01-24T08:58:30.605Z,8.30
2019-01-24T09:00:58.915Z,8.30
2019-01-24T09:03:27.381Z,8.30
2019-01-24T09:05:55.692Z,8.30
2019-01-24T09:08:24.158Z,8.30
2019-01-24T09:10:53.467Z,8.30
2019-01-24T09:13:21.858Z,8.30
2019-01-24T09:15:50.353Z,8.30
2019-01-24T09:18:18.824Z,8.30
2019-01-24T09:20:47.430Z,8.30
2019-01-24T09:23:15.964Z,8.40
2019-01-24T09:25:45.112Z,8.40
2019-01-24T09:28:14.921Z,8.40
2019-01-24T09:30:44.076Z,8.40
2019-01-24T09:33:12.434Z,8.50
2019-01-24T09:35:41.025Z,8.50
2019-01-24T09:38:09.917Z,8.50
2019-01-24T09:40:38.513Z,8.50
2019-01-24T09:43:06.861Z,8.50
2019-01-24T09:45:35.342Z,8.60
2019-01-24T09:48:04.498Z,8.60
2019-01-24T09:50:32.824Z,8.60
2019-01-24T09:53:01.183Z,8.70
2019-01-24T09:55:29.990Z,8.60
2019-01-24T09:57:58.445Z,8.60
2019-01-24T10:00:28.924Z,8.50
2019-01-24T10:02:57.573Z,8.60
2019-01-24T10:05:25.883Z,8.50
2019-01-24T10:07:56.235Z,8.50
2019-01-24T10:10:25.250Z,8.50
2019-01-24T10:12:54.934Z,8.50
2019-01-24T10:15:23.639Z,8.40
2019-01-24T10:17:53.431Z,8.40
2019-01-24T10:20:23.520Z,8.40
2019-01-24T10:22:52.308Z,8.30
2019-01-24T10:25:24.992Z,8.30
2019-01-24T10:27:53.650Z,8.30
2019-01-24T10:30:22.972Z,8.30
2019-01-24T10:32:52.015Z,8.30
2019-01-24T10:35:20.764Z,8.30
2019-01-24T10:37:49.583Z,8.30
2019-01-24T10:40:20.607Z,8.30
2019-01-24T10:42:49.282Z,8.30
2019-01-24T10:45:18.548Z,8.30
2019-01-24T10:47:47.706Z,8.30
2019-01-24T10:50:18.593Z,8.30
2019-01-24T10:52:48.274Z,8.30
2019-01-24T10:55:19.229Z,8.30
2019-01-24T10:57:48.308Z,8.30
2019-01-24T11:00:20.561Z,8.30
2019-01-24T11:02:49.542Z,8.30
2019-01-24T11:05:18.742Z,8.30
2019-01-24T11:07:47.921Z,8.30
2019-01-24T11:10:20.484Z,8.30
2019-01-24T11:12:49.396Z,8.40
2019-01-24T11:15:20.096Z,8.30
2019-01-24T11:17:48.920Z,8.30
2019-01-24T11:20:24.364Z,8.30
2019-01-24T11:22:53.105Z,8.30
2019-01-24T11:25:22.464Z,8.30
2019-01-24T11:27:51.307Z,8.20
2019-01-24T11:30:23.018Z,8.20
2019-01-24T11:32:52.229Z,8.20
2019-01-24T11:35:24.780Z,8.20
2019-01-24T11:37:55.333Z,8.20
2019-01-24T11:40:24.143Z,8.10
2019-01-24T11:42:53.105Z,8.20
2019-01-24T11:45:23.894Z,8.10
2019-01-24T11:47:52.673Z,8.10
2019-01-24T11:50:21.664Z,8.00
2019-01-24T11:52:51.614Z,8.00
2019-01-24T11:55:20.830Z,8.00
2019-01-24T11:57:51.889Z,8.00
2019-01-24T12:00:28.058Z,7.90
2019-01-24T12:02:57.014Z,7.90
2019-01-24T12:05:25.847Z,7.90
2019-01-24T12:07:54.491Z,7.90
2019-01-24T12:10:24.445Z,7.90
2019-01-24T12:12:53.530Z,7.90
2019-01-24T12:15:23.367Z,7.90
2019-01-24T12:17:52.125Z,7.90
2019-01-24T12:20:22.251Z,7.90
2019-01-24T12:22:51.091Z,7.90
2019-01-24T12:25:20.192Z,7.90
2019-01-24T12:27:49.743Z,7.80
2019-01-24T12:30:24.482Z,7.80
2019-01-24T12:32:53.391Z,7.80
2019-01-24T12:35:22.062Z,7.80
2019-01-24T12:37:51.699Z,7.80
2019-01-24T12:40:20.353Z,7.90
2019-01-24T12:42:49.610Z,7.90
2019-01-24T12:45:20.681Z,7.90
2019-01-24T12:47:49.161Z,7.90
2019-01-24T12:50:17.861Z,7.90
2019-01-24T12:52:47.568Z,7.90
2019-01-24T12:55:17.447Z,7.80
2019-01-24T12:57:45.940Z,7.80
2019-01-24T13:00:17.850Z,7.80
2019-01-24T13:02:46.430Z,7.80
2019-01-24T13:05:14.907Z,7.80
2019-01-24T13:07:43.393Z,7.80
2019-01-24T13:10:14.556Z,7.80
2019-01-24T13:12:43.444Z,7.80
2019-01-24T13:15:13.772Z,7.80
2019-01-24T13:17:42.414Z,7.70
2019-01-24T13:20:12.689Z,7.70
2019-01-24T13:22:41.370Z,7.80
2019-01-24T13:25:13.914Z,7.70
2019-01-24T13:27:42.591Z,7.80
2019-01-24T13:30:17.254Z,7.80
2019-01-24T13:32:46.941Z,7.80
